Airfield :
LOGIN :

Register | Disclaimer

   EN    FR    IT 

 










Legend :    VFR   Marginal VFR   IFR   Intensive IFR   Very Intensive IFR
Visi :
Ceiling :
>= 8 km
>= 3000ft
5 to 8 km
1000 to 3000 ft
1500m to 5 km
500 to 1000 ft
800 to 1500m
200 to 500 ft
< 800m
< 200 ft
Symbols :   Thunderstorms  Fog  Heavy snow  Heavy precipitations  Wind > 20 kt
SIGMETs :     Misc.  Thunderstorms  Icing  Turbulence  Mountain Waves  Volcanic Ashes






- Airport Elevation : 313 ft
- IATA code : LEH


LFOH - Le Havre Octeville

CURRENT METAR :
  • 081000Z AUTO 10002KT 9999 SCT025 BKN030 BKN041 04/03 Q1011 TEMPO 3000 SHRA BKN015TCU

EXPIRED METARs :
  • 080930Z AUTO 09004KT 9000 -RA FEW011 SCT020 BKN046 04/03 Q1011 TEMPO 3000 SHRA BKN015TCU
  • 080900Z AUTO 00000KT 5000 -RA BR BKN017 OVC025 04/03 Q1011 TEMPO SHRA BKN015TCU
  • 080830Z AUTO 00000KT 6000 -RA SCT014 BKN021 OVC034 04/03 Q1011 TEMPO 3000 SHRA BKN015TCU
  • 080800Z AUTO 00000KT 5000 RA BR SCT017 OVC023 04/03 Q1011 TEMPO BKN015TCU
  • 080730Z AUTO VRB02KT 9999 OVC021 04/03 Q1011 TEMPO 3000 SHRA BKN015TCU

TAF TAF LFOH
Valid from the 08 at 06:00 until the 09 at 06:00 UTC


080500Z 0806/0906 15003KT 9999 BKN025
TEMPO 0806/0817 3000 SHRA BKN015TCU
PROB40
TEMPO 0900/0906 0500 FZFG VV///
ATIS : +33 2 35 54 64 93



MET'MAP, your aeronautical weather chart ! - Copyright ORBIFLY December 2007 - Disclaimer

ORBIFLY MET'MAP TEAM :

Programming & Development : Alexandra Zaïnal
Original concept : Baudouin d'Aumeries
Technical & hardware support : Manuel Goepfert
Assistance : Marc-Olivier Méhu




SOURCES & CREDITS :

   NOAA